Airfield :
LOGIN :

Register | Disclaimer

   EN    FR    IT 

 










Legend :    VFR   Marginal VFR   IFR   Intensive IFR   Very Intensive IFR
Visi :
Ceiling :
>= 8 km
>= 3000ft
5 to 8 km
1000 to 3000 ft
1500m to 5 km
500 to 1000 ft
800 to 1500m
200 to 500 ft
< 800m
< 200 ft
Symbols :   Thunderstorms  Fog  Heavy snow  Heavy precipitations  Wind > 20 kt
SIGMETs :     Misc.  Thunderstorms  Icing  Turbulence  Mountain Waves  Volcanic Ashes







- Airport Elevation : 19 ft
- IATA code : LCY
- Download approach charts


EGLC - London City

CURRENT METAR :
  • 250350Z AUTO 12011KT 9999 -RA BKN039 11/08 Q0996

EXPIRED METARs :
  • 250320Z AUTO 12011KT 9999 SCT041 BKN048 11/08 Q0996
  • 250250Z AUTO 12010KT 9999 -RA NCD 11/08 Q0997
  • 250220Z AUTO 12012KT 9999 NCD 11/08 Q0997
  • 250150Z AUTO 13012KT 9999 NCD 11/08 Q0997
  • 250120Z AUTO 13011KT 9999 NCD 11/08 Q0997
  • 250050Z AUTO 12010KT 9999 NCD 11/08 Q0997

TAF TAF EGLC
Valid from the 25 at 03:00 until the 25 at 12:00 UTC


250208Z 2503/2512 15011KT 9999 SCT030
TEMPO 2503/2510 4000 RA SHRA BKN009
PROB30
TEMPO 2510/2512 19015G25KT 6000 SHRA BKN014CB
ATIS : +44 20 7646 0224
No reported NOTAMs for that airfield.



MET'MAP, your aeronautical weather chart ! - Copyright ORBIFLY December 2007 - Disclaimer

ORBIFLY MET'MAP TEAM :

Programming & Development : Alexandra Zaïnal
Concept & Development : Baudouin d'Aumeries
Co-Development & Prog : Marc-Olivier Méhu
Technical & hardware support : Manuel Goepfert

Contact : metmap@orbifly.com




SOURCES & CREDITS :

   NOAA